createdAt,value
2018-09-13T00:00:14.729Z,84.78
2018-09-13T00:01:14.741Z,84.55
2018-09-13T00:02:14.992Z,84.85
2018-09-13T00:03:14.697Z,84.69
2018-09-13T00:04:14.959Z,84.85
2018-09-13T00:05:14.677Z,84.44
2018-09-13T00:06:14.663Z,84.69
2018-09-13T00:07:14.657Z,84.95
2018-09-13T00:08:14.644Z,84.64
2018-09-13T00:09:14.892Z,85.46
2018-09-13T00:10:14.631Z,84.85
2018-09-13T00:11:14.628Z,84.64
2018-09-13T00:12:14.622Z,84.75
2018-09-13T00:13:14.594Z,85.46
2018-09-13T00:14:14.573Z,84.34
2018-09-13T00:15:14.571Z,84.64
2018-09-13T00:16:14.820Z,84.85
2018-09-13T00:17:14.545Z,84.34
2018-09-13T00:18:14.550Z,84.85
2018-09-13T00:19:14.527Z,85.36
2018-09-13T00:20:14.510Z,85.36
2018-09-13T00:21:14.506Z,84.75
2018-09-13T00:22:14.755Z,85.05
2018-09-13T00:23:14.499Z,84.75
2018-09-13T00:24:14.494Z,85.15
2018-09-13T00:25:14.457Z,84.95
2018-09-13T00:26:14.458Z,84.95
2018-09-13T00:27:14.716Z,84.34
2018-09-13T00:28:14.423Z,84.44
2018-09-13T00:29:15.594Z,84.95
2018-09-13T00:30:14.418Z,84.75
2018-09-13T00:31:14.402Z,84.44
2018-09-13T00:32:14.423Z,84.64
2018-09-13T00:33:14.387Z,84.64
2018-09-13T00:34:14.373Z,84.85
2018-09-13T00:35:14.362Z,84.75
2018-09-13T00:36:14.332Z,84.75
2018-09-13T00:37:14.326Z,84.64
2018-09-13T00:38:14.573Z,84.75
2018-09-13T00:39:14.314Z,84.64
2018-09-13T00:40:14.307Z,84.75
2018-09-13T00:41:14.285Z,84.95
2018-09-13T00:42:14.599Z,84.55
2018-09-13T00:43:14.266Z,84.64
2018-09-13T00:44:14.247Z,85.15
2018-09-13T00:45:14.499Z,84.55
2018-09-13T00:46:14.240Z,85.15
2018-09-13T00:47:14.230Z,85.05
2018-09-13T00:48:14.207Z,84.64
2018-09-13T00:49:14.192Z,84.75
2018-09-13T00:50:14.452Z,84.70
2018-09-13T00:51:14.171Z,84.81
2018-09-13T00:52:14.286Z,84.55
2018-09-13T00:53:14.428Z,84.70
2018-09-13T00:54:14.139Z,85.15
2018-09-13T00:55:14.182Z,84.95
2018-09-13T00:56:14.373Z,84.95
2018-09-13T00:57:14.110Z,84.44
2018-09-13T00:58:14.107Z,84.44
2018-09-13T00:59:14.089Z,84.55
2018-09-13T01:00:14.079Z,84.85
2018-09-13T01:01:14.064Z,84.85
2018-09-13T01:02:14.049Z,85.21
2018-09-13T01:03:14.298Z,84.95
2018-09-13T01:04:14.294Z,84.75
2018-09-13T01:05:14.016Z,84.04
2018-09-13T01:06:14.011Z,84.95
2018-09-13T01:07:13.995Z,85.21
2018-09-13T01:08:13.990Z,84.64
2018-09-13T01:09:14.232Z,84.55
2018-09-13T01:10:14.231Z,83.90
2018-09-13T01:11:13.952Z,84.34
2018-09-13T01:12:13.950Z,83.94
2018-09-13T01:13:13.937Z,83.73
2018-09-13T01:14:13.919Z,84.04
2018-09-13T01:15:13.919Z,84.24
2018-09-13T01:16:13.912Z,84.24
2018-09-13T01:17:14.145Z,84.04
2018-09-13T01:18:14.023Z,84.34
2018-09-13T01:19:14.144Z,83.73
2018-09-13T01:20:13.885Z,83.94
2018-09-13T01:21:13.848Z,83.94
2018-09-13T01:22:13.837Z,84.04
2018-09-13T01:23:14.091Z,84.44
2018-09-13T01:24:13.812Z,84.24
2018-09-13T01:25:13.799Z,83.83
2018-09-13T01:26:13.785Z,84.14
2018-09-13T01:27:13.785Z,84.24
2018-09-13T01:28:14.031Z,83.43
2018-09-13T01:29:13.763Z,84.34
2018-09-13T01:30:14.016Z,83.98
2018-09-13T01:31:13.729Z,83.83
2018-09-13T01:32:13.731Z,84.24
2018-09-13T01:33:13.724Z,84.34
2018-09-13T01:34:13.707Z,84.28
2018-09-13T01:35:13.700Z,84.04
2018-09-13T01:36:13.680Z,83.94
2018-09-13T01:37:13.936Z,84.04
2018-09-13T01:38:13.923Z,84.24
2018-09-13T01:39:13.804Z,84.04
2018-09-13T01:40:13.653Z,84.04
2018-09-13T01:41:14.359Z,84.24
2018-09-13T01:42:13.877Z,83.94
2018-09-13T01:43:13.613Z,84.04
2018-09-13T01:44:13.593Z,84.04
2018-09-13T01:45:13.584Z,83.73
2018-09-13T01:46:13.579Z,83.94
2018-09-13T01:47:13.562Z,83.94
2018-09-13T01:48:14.551Z,84.14
2018-09-13T01:49:13.549Z,84.14
2018-09-13T01:50:13.525Z,83.83
2018-09-13T01:51:13.829Z,83.94
2018-09-13T01:52:13.516Z,84.04
2018-09-13T01:53:13.491Z,84.04
2018-09-13T01:54:13.492Z,83.94
2018-09-13T01:55:13.470Z,84.24
2018-09-13T01:56:13.463Z,83.83
2018-09-13T01:57:13.459Z,84.04
2018-09-13T01:58:13.456Z,84.04
2018-09-13T01:59:13.428Z,84.14
2018-09-13T02:00:13.428Z,83.94
2018-09-13T02:01:13.407Z,83.94
2018-09-13T02:02:13.662Z,83.94
2018-09-13T02:03:13.426Z,83.83
2018-09-13T02:04:13.376Z,84.24
2018-09-13T02:05:13.709Z,83.83
2018-09-13T02:06:13.615Z,83.83
2018-09-13T02:07:13.601Z,83.94
2018-09-13T02:08:13.334Z,83.73
2018-09-13T02:09:13.318Z,83.94
2018-09-13T02:10:13.582Z,84.24
2018-09-13T02:11:13.296Z,84.04
2018-09-13T02:12:13.546Z,84.24
2018-09-13T02:13:13.283Z,84.34
2018-09-13T02:14:13.272Z,84.44
2018-09-13T02:15:13.520Z,85.05
2018-09-13T02:16:13.500Z,83.83
2018-09-13T02:17:13.338Z,84.24
2018-09-13T02:18:13.214Z,84.14
2018-09-13T02:19:13.222Z,84.24
2018-09-13T02:20:13.205Z,84.14
2018-09-13T02:21:13.863Z,83.63
2018-09-13T02:22:13.448Z,83.83
2018-09-13T02:23:13.519Z,83.53
2018-09-13T02:24:13.153Z,84.34
2018-09-13T02:25:13.145Z,83.94
2018-09-13T02:26:13.394Z,84.24
2018-09-13T02:27:13.375Z,84.30
2018-09-13T02:28:13.109Z,84.24
2018-09-13T02:29:13.365Z,84.14
2018-09-13T02:30:13.085Z,84.75
2018-09-13T02:31:13.073Z,84.75
2018-09-13T02:32:13.332Z,84.64
2018-09-13T02:33:13.065Z,84.85
2018-09-13T02:34:13.046Z,84.64
2018-09-13T02:35:13.048Z,84.44
2018-09-13T02:36:13.294Z,85.25
2018-09-13T02:37:13.014Z,84.85
2018-09-13T02:38:12.996Z,85.15
2018-09-13T02:39:13.253Z,85.56
2018-09-13T02:40:12.974Z,85.76
2018-09-13T02:41:12.978Z,85.86
2018-09-13T02:42:13.227Z,86.37
2018-09-13T02:43:12.941Z,86.27
2018-09-13T02:44:12.994Z,86.27
2018-09-13T02:45:13.200Z,86.57
2018-09-13T02:46:13.179Z,86.47
2018-09-13T02:47:13.433Z,86.88
2018-09-13T02:48:12.894Z,86.47
2018-09-13T02:49:12.944Z,86.68
2018-09-13T02:50:12.866Z,86.57
2018-09-13T02:51:12.859Z,86.68
2018-09-13T02:52:12.854Z,86.51
2018-09-13T02:53:13.124Z,86.47
2018-09-13T02:54:12.835Z,86.98
2018-09-13T02:55:12.817Z,86.77
2018-09-13T02:56:12.934Z,87.89
2018-09-13T02:57:12.794Z,87.89
2018-09-13T02:58:13.780Z,86.77
2018-09-13T02:59:12.778Z,86.77
2018-09-13T03:00:12.763Z,86.98
2018-09-13T03:01:12.761Z,86.37
2018-09-13T03:02:13.154Z,86.71
2018-09-13T03:03:12.725Z,86.37
2018-09-13T03:04:12.714Z,86.82
2018-09-13T03:05:12.976Z,86.41
2018-09-13T03:06:12.688Z,86.77
2018-09-13T03:07:12.683Z,87.38
2018-09-13T03:08:12.683Z,86.82
2018-09-13T03:09:12.673Z,87.59
2018-09-13T03:10:12.665Z,87.99
2018-09-13T03:11:12.685Z,88.13
2018-09-13T03:12:12.663Z,88.13
2018-09-13T03:13:12.895Z,87.83
2018-09-13T03:14:12.621Z,88.13
2018-09-13T03:15:12.864Z,87.63
2018-09-13T03:16:12.580Z,89.25
2018-09-13T03:17:12.580Z,89.96
2018-09-13T03:18:12.557Z,91.17
2018-09-13T03:19:12.550Z,90.47
2018-09-13T03:20:12.538Z,90.88
2018-09-13T03:21:12.528Z,90.57
2018-09-13T03:22:12.511Z,90.71
2018-09-13T03:23:12.505Z,91.12
2018-09-13T03:24:12.495Z,91.12
2018-09-13T03:25:12.496Z,91.63
2018-09-13T03:26:12.474Z,92.80
2018-09-13T03:27:12.723Z,93.65
2018-09-13T03:28:12.446Z,93.45
2018-09-13T03:29:12.727Z,93.25
2018-09-13T03:30:12.429Z,93.15
2018-09-13T03:31:12.420Z,93.25
2018-09-13T03:32:12.403Z,93.45
2018-09-13T03:33:12.400Z,93.76
2018-09-13T03:34:12.389Z,93.76
2018-09-13T03:35:12.396Z,93.19
2018-09-13T03:36:12.382Z,93.65
2018-09-13T03:37:12.370Z,93.45
2018-09-13T03:38:12.351Z,93.86
2018-09-13T03:39:12.330Z,93.25
2018-09-13T03:40:12.326Z,94.46
2018-09-13T03:41:12.332Z,94.37
2018-09-13T03:42:12.301Z,94.06
2018-09-13T03:43:12.295Z,94.31
2018-09-13T03:44:12.281Z,93.55
2018-09-13T03:45:12.280Z,93.19
2018-09-13T03:46:12.392Z,93.55
2018-09-13T03:47:12.509Z,93.55
2018-09-13T03:48:12.237Z,93.76
2018-09-13T03:49:12.226Z,93.65
2018-09-13T03:50:12.211Z,92.64
2018-09-13T03:51:12.202Z,92.64
2018-09-13T03:52:12.187Z,93.55
2018-09-13T03:53:12.189Z,93.35
2018-09-13T03:54:12.163Z,93.05
2018-09-13T03:55:12.153Z,93.55
2018-09-13T03:56:12.140Z,93.55
2018-09-13T03:57:12.128Z,93.45
2018-09-13T03:58:12.198Z,93.76
2018-09-13T03:59:12.633Z,93.55
2018-09-13T04:00:12.103Z,93.65
2018-09-13T04:01:12.085Z,93.65
2018-09-13T04:02:12.343Z,93.76
2018-09-13T04:03:12.101Z,93.25
2018-09-13T04:04:12.059Z,93.55
2018-09-13T04:05:12.041Z,94.06
2018-09-13T04:06:12.035Z,93.80
2018-09-13T04:07:12.286Z,94.37
2018-09-13T04:08:12.009Z,94.37
2018-09-13T04:09:12.049Z,93.60
2018-09-13T04:10:12.002Z,94.26
2018-09-13T04:11:11.978Z,94.06
2018-09-13T04:12:11.969Z,94.82
2018-09-13T04:13:11.990Z,94.67
2018-09-13T04:14:11.944Z,94.57
2018-09-13T04:15:12.210Z,94.98
2018-09-13T04:16:11.933Z,94.37
2018-09-13T04:17:11.929Z,94.46
2018-09-13T04:18:12.017Z,94.82
2018-09-13T04:19:11.888Z,95.28
2018-09-13T04:20:12.145Z,95.12
2018-09-13T04:21:11.877Z,95.18
2018-09-13T04:22:11.852Z,95.53
2018-09-13T04:23:11.860Z,95.83
2018-09-13T04:24:11.842Z,95.83
2018-09-13T04:25:11.853Z,95.89
2018-09-13T04:26:11.821Z,95.63
2018-09-13T04:27:11.820Z,95.12
2018-09-13T04:28:11.802Z,95.12
2018-09-13T04:29:11.811Z,95.22
2018-09-13T04:30:11.769Z,95.73
2018-09-13T04:31:11.763Z,95.53
2018-09-13T04:32:11.742Z,96.03
2018-09-13T04:33:11.851Z,95.83
2018-09-13T04:34:16.048Z,95.73
2018-09-13T04:35:11.732Z,96.03
2018-09-13T04:36:11.752Z,96.54
2018-09-13T04:37:11.695Z,96.03
2018-09-13T04:38:11.681Z,96.95
2018-09-13T04:39:12.045Z,96.14
2018-09-13T04:40:11.721Z,96.75
2018-09-13T04:41:11.657Z,96.39
2018-09-13T04:42:11.655Z,95.73
2018-09-13T04:43:11.624Z,95.63
2018-09-13T04:44:11.618Z,95.83
2018-09-13T04:45:11.606Z,96.64
2018-09-13T04:46:11.853Z,96.84
2018-09-13T04:47:11.599Z,96.44
2018-09-13T04:48:11.599Z,96.44
2018-09-13T04:49:11.666Z,96.14
2018-09-13T04:50:11.550Z,96.34
2018-09-13T04:51:11.556Z,96.95
2018-09-13T04:52:11.523Z,96.54
2018-09-13T04:53:11.517Z,96.34
2018-09-13T04:54:11.509Z,96.84
2018-09-13T04:55:11.508Z,96.84
2018-09-13T04:56:11.607Z,96.54
2018-09-13T04:57:11.487Z,96.54
2018-09-13T04:58:11.587Z,96.64
2018-09-13T04:59:11.447Z,96.59
2018-09-13T05:00:11.465Z,96.95
2018-09-13T05:01:11.693Z,96.59
2018-09-13T05:02:11.416Z,96.64
2018-09-13T05:03:11.419Z,96.99
2018-09-13T05:04:11.404Z,97.20
2018-09-13T05:05:11.383Z,97.30
2018-09-13T05:06:11.374Z,96.95
2018-09-13T05:07:11.374Z,97.09
2018-09-13T05:08:11.617Z,97.40
2018-09-13T05:09:11.456Z,97.30
2018-09-13T05:10:11.337Z,97.20
2018-09-13T05:11:11.328Z,97.09
2018-09-13T05:12:11.317Z,97.09
2018-09-13T05:13:11.299Z,97.20
2018-09-13T05:14:11.630Z,97.30
2018-09-13T05:15:11.333Z,97.50
2018-09-13T05:16:11.270Z,97.50
2018-09-13T05:17:11.261Z,97.20
2018-09-13T05:18:11.245Z,97.30
2018-09-13T05:19:11.248Z,97.20
2018-09-13T05:20:11.490Z,97.96
2018-09-13T05:21:11.427Z,97.96
2018-09-13T05:22:11.208Z,98.07
2018-09-13T05:23:11.193Z,97.96
2018-09-13T05:24:11.182Z,97.80
2018-09-13T05:25:11.174Z,97.20
2018-09-13T05:26:11.293Z,97.30
2018-09-13T05:27:11.152Z,97.09
2018-09-13T05:28:11.136Z,97.40
2018-09-13T05:29:11.121Z,97.40
2018-09-13T05:30:20.082Z,97.30
2018-09-13T05:31:12.114Z,97.40
2018-09-13T05:32:11.182Z,97.20
2018-09-13T05:33:11.343Z,96.84
2018-09-13T05:34:11.359Z,96.95
2018-09-13T05:35:11.063Z,97.35
2018-09-13T05:36:11.049Z,97.86
2018-09-13T05:37:11.048Z,97.56
2018-09-13T05:38:11.029Z,97.66
2018-09-13T05:39:11.021Z,97.25
2018-09-13T05:40:11.275Z,97.50
2018-09-13T05:41:10.993Z,96.89
2018-09-13T05:42:11.245Z,97.09
2018-09-13T05:43:10.966Z,97.20
2018-09-13T05:44:11.000Z,96.89
2018-09-13T05:45:11.730Z,96.99
2018-09-13T05:46:11.065Z,97.40
2018-09-13T05:47:11.208Z,97.30
2018-09-13T05:48:10.931Z,96.95
2018-09-13T05:49:11.053Z,97.45
2018-09-13T05:50:10.902Z,97.86
2018-09-13T05:51:10.904Z,97.25
2018-09-13T05:52:10.873Z,97.35
2018-09-13T05:53:10.862Z,96.84
2018-09-13T05:54:10.867Z,97.15
2018-09-13T05:55:11.126Z,97.15
2018-09-13T05:56:10.829Z,97.15
2018-09-13T05:57:10.822Z,97.35
2018-09-13T05:58:10.963Z,97.25
2018-09-13T05:59:10.794Z,97.45
2018-09-13T06:00:14.967Z,97.35
2018-09-13T06:01:10.895Z,96.64
2018-09-13T06:02:11.072Z,96.54
2018-09-13T06:03:10.777Z,96.95
2018-09-13T06:04:10.841Z,96.75
2018-09-13T06:05:10.727Z,96.64
2018-09-13T06:06:10.786Z,96.64
2018-09-13T06:07:10.966Z,96.54
2018-09-13T06:08:10.955Z,96.64
2018-09-13T06:09:10.693Z,96.75
2018-09-13T06:10:10.677Z,96.75
2018-09-13T06:11:10.675Z,96.84
2018-09-13T06:12:10.654Z,96.95
2018-09-13T06:13:10.658Z,96.95
2018-09-13T06:14:10.637Z,97.15
2018-09-13T06:15:20.192Z,96.75
2018-09-13T06:16:10.618Z,96.95
2018-09-13T06:17:10.608Z,96.84
2018-09-13T06:18:10.857Z,97.15
2018-09-13T06:19:10.777Z,96.64
2018-09-13T06:20:10.580Z,96.34
2018-09-13T06:21:10.668Z,96.84
2018-09-13T06:22:10.916Z,96.84
2018-09-13T06:23:10.536Z,97.05
2018-09-13T06:24:10.654Z,97.35
2018-09-13T06:25:10.508Z,96.84
2018-09-13T06:26:10.610Z,96.54
2018-09-13T06:27:10.496Z,96.95
2018-09-13T06:28:10.601Z,96.50
2018-09-13T06:29:10.469Z,96.50
2018-09-13T06:30:15.935Z,96.60
2018-09-13T06:31:10.463Z,96.75
2018-09-13T06:32:10.433Z,96.80
2018-09-13T06:33:10.464Z,96.39
2018-09-13T06:34:10.410Z,96.60
2018-09-13T06:35:10.419Z,96.50
2018-09-13T06:36:10.393Z,96.09
2018-09-13T06:37:10.758Z,96.70
2018-09-13T06:38:10.519Z,96.70
2018-09-13T06:39:10.357Z,95.99
2018-09-13T06:40:10.465Z,95.99
2018-09-13T06:41:10.358Z,95.58
2018-09-13T06:42:10.331Z,95.48
2018-09-13T06:43:10.709Z,96.09
2018-09-13T06:44:10.336Z,95.68
2018-09-13T06:45:13.002Z,95.58
2018-09-13T06:46:10.282Z,95.89
2018-09-13T06:47:10.373Z,95.99
2018-09-13T06:48:10.383Z,96.19
2018-09-13T06:49:10.276Z,95.79
2018-09-13T06:50:10.378Z,95.89
2018-09-13T06:51:10.245Z,95.94
2018-09-13T06:52:10.372Z,95.99
2018-09-13T06:53:10.347Z,95.23
2018-09-13T06:54:10.505Z,94.87
2018-09-13T06:55:10.321Z,94.87
2018-09-13T06:56:10.183Z,94.98
2018-09-13T06:57:11.401Z,95.07
2018-09-13T06:58:10.318Z,95.58
2018-09-13T06:59:10.138Z,95.38
2018-09-13T07:00:12.182Z,94.98
2018-09-13T07:01:10.208Z,95.79
2018-09-13T07:02:10.117Z,95.58
2018-09-13T07:03:10.096Z,95.48
2018-09-13T07:04:10.105Z,95.68
2018-09-13T07:05:10.087Z,95.74
2018-09-13T07:06:10.058Z,95.43
2018-09-13T07:07:10.055Z,95.68
2018-09-13T07:08:10.043Z,95.48
2018-09-13T07:09:10.089Z,95.38
2018-09-13T07:10:10.062Z,95.48
2018-09-13T07:11:10.026Z,95.68
2018-09-13T07:12:10.038Z,95.68
2018-09-13T07:13:09.989Z,95.38
2018-09-13T07:14:10.161Z,95.89
2018-09-13T07:15:22.173Z,95.68
2018-09-13T07:16:10.694Z,95.48
2018-09-13T07:17:09.956Z,94.77
2018-09-13T07:18:09.995Z,94.46
2018-09-13T07:19:09.936Z,94.57
2018-09-13T07:20:09.919Z,94.73
2018-09-13T07:21:09.966Z,94.77
2018-09-13T07:22:09.939Z,94.83
2018-09-13T07:23:10.280Z,94.67
2018-09-13T07:24:09.863Z,94.77
2018-09-13T07:25:10.094Z,95.79
2018-09-13T07:26:09.854Z,94.98
2018-09-13T07:27:09.839Z,94.46
2018-09-13T07:28:09.839Z,94.77
2018-09-13T07:29:09.831Z,95.54
2018-09-13T07:30:15.254Z,94.53
2018-09-13T07:31:09.803Z,94.42
2018-09-13T07:32:09.933Z,94.62
2018-09-13T07:33:09.765Z,94.62
2018-09-13T07:34:09.755Z,94.22
2018-09-13T07:35:10.137Z,94.42
2018-09-13T07:36:09.729Z,93.61
2018-09-13T07:37:09.717Z,93.71
2018-09-13T07:38:09.731Z,94.62
2018-09-13T07:39:09.773Z,94.42
2018-09-13T07:40:09.681Z,94.48
2018-09-13T07:41:09.722Z,93.46
2018-09-13T07:42:09.674Z,94.18
2018-09-13T07:43:09.683Z,93.37
2018-09-13T07:44:09.653Z,93.37
2018-09-13T07:45:20.557Z,93.46
2018-09-13T07:46:09.694Z,92.65
2018-09-13T07:47:09.615Z,92.25
2018-09-13T07:48:10.139Z,92.45
2018-09-13T07:49:09.630Z,92.40
2018-09-13T07:50:09.628Z,91.54
2018-09-13T07:51:09.578Z,91.54
2018-09-13T07:52:09.680Z,91.44
2018-09-13T07:53:09.566Z,91.44
2018-09-13T07:54:09.652Z,91.85
2018-09-13T07:55:09.549Z,92.14
2018-09-13T07:56:09.560Z,91.24
2018-09-13T07:57:09.622Z,91.54
2018-09-13T07:58:09.516Z,91.50
2018-09-13T07:59:09.755Z,91.64
2018-09-13T08:00:14.203Z,91.34
2018-09-13T08:01:11.931Z,91.39
2018-09-13T08:02:09.444Z,90.99
2018-09-13T08:03:09.460Z,91.39
2018-09-13T08:04:09.423Z,90.22
2018-09-13T08:05:10.173Z,90.38
2018-09-13T08:06:09.415Z,90.62
2018-09-13T08:07:09.446Z,90.89
2018-09-13T08:08:09.631Z,90.08
2018-09-13T08:09:09.634Z,89.87
2018-09-13T08:10:09.366Z,90.28
2018-09-13T08:11:09.878Z,90.99
2018-09-13T08:12:09.534Z,90.38
2018-09-13T08:13:09.329Z,90.89
2018-09-13T08:14:09.633Z,91.05
2018-09-13T08:15:17.205Z,90.75
2018-09-13T08:16:09.307Z,90.03
2018-09-13T08:17:09.560Z,90.34
2018-09-13T08:18:09.283Z,89.48
2018-09-13T08:19:09.543Z,89.79
2018-09-13T08:20:09.257Z,89.28
2018-09-13T08:21:09.520Z,89.08
2018-09-13T08:22:09.278Z,88.98
2018-09-13T08:23:09.243Z,89.89
2018-09-13T08:24:09.238Z,89.08
2018-09-13T08:25:09.208Z,89.39
2018-09-13T08:26:09.478Z,88.33
2018-09-13T08:27:09.287Z,89.14
2018-09-13T08:28:09.702Z,88.90
2018-09-13T08:29:09.145Z,89.81
2018-09-13T08:30:23.167Z,88.79
2018-09-13T08:31:09.138Z,86.67
2018-09-13T08:32:09.391Z,87.68
2018-09-13T08:33:09.139Z,87.95
2018-09-13T08:34:09.380Z,87.34
2018-09-13T08:35:09.185Z,86.13
2018-09-13T08:36:09.087Z,85.72
2018-09-13T08:37:09.308Z,85.42
2018-09-13T08:38:09.059Z,85.82
2018-09-13T08:39:09.313Z,86.53
2018-09-13T08:40:09.064Z,86.53
2018-09-13T08:41:09.376Z,86.19
2018-09-13T08:42:09.054Z,86.29
2018-09-13T08:43:09.497Z,85.99
2018-09-13T08:44:09.261Z,85.68
2018-09-13T08:45:09.616Z,85.54
2018-09-13T08:46:09.280Z,84.73
2018-09-13T08:47:09.155Z,84.57
2018-09-13T08:48:08.947Z,84.27
2018-09-13T08:49:09.000Z,83.96
2018-09-13T08:50:08.939Z,84.77
2018-09-13T08:51:09.241Z,85.78
2018-09-13T08:52:09.007Z,86.08
2018-09-13T08:53:08.969Z,85.08
2018-09-13T08:54:08.883Z,86.19
2018-09-13T08:55:08.909Z,84.81
2018-09-13T08:56:08.864Z,86.19
2018-09-13T08:57:09.110Z,85.68
2018-09-13T08:58:09.042Z,84.97
2018-09-13T08:59:08.820Z,84.71
2018-09-13T09:00:09.344Z,84.37
2018-09-13T09:01:08.808Z,85.48
2018-09-13T09:02:08.785Z,85.68
2018-09-13T09:03:09.046Z,84.43
2018-09-13T09:04:08.979Z,84.53
2018-09-13T09:05:08.839Z,83.12
2018-09-13T09:06:08.832Z,83.72
2018-09-13T09:07:08.956Z,84.03
2018-09-13T09:08:08.728Z,84.43
2018-09-13T09:09:08.815Z,84.73
2018-09-13T09:10:08.839Z,85.74
2018-09-13T09:11:08.707Z,85.30
2018-09-13T09:12:08.746Z,83.28
2018-09-13T09:13:08.689Z,83.42
2018-09-13T09:14:09.011Z,83.32
2018-09-13T09:15:23.800Z,84.39
2018-09-13T09:16:08.649Z,84.29
2018-09-13T09:17:08.657Z,84.03
2018-09-13T09:18:08.624Z,83.58
2018-09-13T09:19:09.163Z,83.38
2018-09-13T09:20:08.596Z,82.37
2018-09-13T09:21:08.589Z,82.37
2018-09-13T09:22:09.111Z,82.57
2018-09-13T09:23:10.929Z,83.48
2018-09-13T09:24:08.942Z,82.91
2018-09-13T09:25:08.538Z,83.42
2018-09-13T09:26:08.539Z,83.62
2018-09-13T09:27:08.529Z,83.92
2018-09-13T09:28:08.529Z,84.53
2018-09-13T09:29:08.513Z,84.83
2018-09-13T09:30:08.998Z,84.53
2018-09-13T09:31:09.912Z,83.62
2018-09-13T09:32:08.582Z,82.91
2018-09-13T09:33:08.448Z,83.42
2018-09-13T09:34:08.590Z,83.72
2018-09-13T09:35:08.540Z,83.62
2018-09-13T09:36:08.745Z,84.23
2018-09-13T09:37:09.010Z,83.76
2018-09-13T09:38:08.392Z,85.38
2018-09-13T09:39:08.816Z,85.08
2018-09-13T09:40:08.378Z,84.67
2018-09-13T09:41:08.366Z,84.17
2018-09-13T09:42:08.684Z,84.37
2018-09-13T09:43:08.345Z,85.88
2018-09-13T09:44:08.380Z,84.97
2018-09-13T09:45:18.047Z,85.68
2018-09-13T09:46:08.324Z,86.08
2018-09-13T09:47:08.326Z,85.99
2018-09-13T09:48:08.468Z,85.99
2018-09-13T09:49:08.554Z,86.39
2018-09-13T09:50:08.290Z,86.29
2018-09-13T09:51:08.280Z,86.08
2018-09-13T09:52:08.268Z,85.99
2018-09-13T09:53:08.323Z,85.28
2018-09-13T09:54:08.236Z,84.97
2018-09-13T09:55:13.886Z,86.08
2018-09-13T09:56:08.247Z,85.88
2018-09-13T09:57:08.590Z,85.08
2018-09-13T09:58:08.244Z,84.06
2018-09-13T09:59:08.267Z,84.87
2018-09-13T10:00:08.611Z,84.77
2018-09-13T10:01:11.519Z,85.62
2018-09-13T10:02:08.785Z,84.91
2018-09-13T10:03:09.587Z,84.61
2018-09-13T10:04:20.486Z,85.93
2018-09-13T10:05:30.324Z,85.42
2018-09-13T10:06:08.401Z,85.82
2018-09-13T10:07:08.093Z,86.53
2018-09-13T10:08:20.669Z,85.96
2018-09-13T10:09:08.250Z,85.82
2018-09-13T10:10:08.595Z,85.31
2018-09-13T10:11:26.548Z,85.82
2018-09-13T10:12:08.314Z,86.02
2018-09-13T10:13:11.547Z,86.13
2018-09-13T10:14:08.038Z,85.86
2018-09-13T10:15:08.475Z,86.37
2018-09-13T10:18:09.703Z,86.07
2018-09-13T10:19:08.279Z,86.07
2018-09-13T10:20:08.252Z,86.07
2018-09-13T10:21:08.546Z,86.61
2018-09-13T10:22:12.843Z,86.61
2018-09-13T10:23:33.598Z,85.90
2018-09-13T10:25:09.107Z,86.37
2018-09-13T10:26:08.464Z,85.56
2018-09-13T10:27:07.891Z,85.36
2018-09-13T10:28:08.595Z,85.56
2018-09-13T10:29:09.254Z,85.96
2018-09-13T10:30:15.120Z,86.07
2018-09-13T10:31:08.474Z,86.21
2018-09-13T10:32:08.395Z,86.51
2018-09-13T10:33:08.770Z,86.41
2018-09-13T10:34:08.284Z,86.57
2018-09-13T10:35:11.993Z,86.61
2018-09-13T10:36:07.913Z,86.61
2018-09-13T10:38:07.739Z,86.51
2018-09-13T10:39:07.735Z,86.21
2018-09-13T10:40:09.485Z,86.51
2018-09-13T10:41:07.780Z,86.71
2018-09-13T10:42:11.013Z,86.71
2018-09-13T10:43:08.139Z,86.47
2018-09-13T10:44:07.752Z,85.76
2018-09-13T10:45:26.767Z,85.16
2018-09-13T10:46:08.081Z,86.07
2018-09-13T10:47:08.512Z,85.86
2018-09-13T10:48:07.725Z,85.66
2018-09-13T10:49:07.640Z,86.37
2018-09-13T10:50:07.629Z,85.86
2018-09-13T10:51:19.218Z,86.07
2018-09-13T10:52:07.987Z,85.86
2018-09-13T10:53:08.708Z,86.37
2018-09-13T10:54:07.654Z,85.96
2018-09-13T10:55:12.271Z,86.37
2018-09-13T10:56:08.338Z,86.27
2018-09-13T10:57:08.803Z,86.16
2018-09-13T10:58:09.747Z,85.86
2018-09-13T10:59:10.139Z,86.57
2018-09-13T11:00:08.164Z,86.73
2018-09-13T11:01:07.859Z,85.62
2018-09-13T11:02:07.490Z,84.45
2018-09-13T11:03:07.584Z,85.72
2018-09-13T11:04:08.197Z,86.13
2018-09-13T11:05:07.515Z,84.65
2018-09-13T11:06:07.884Z,84.75
2018-09-13T11:07:26.179Z,84.65
2018-09-13T11:08:09.281Z,84.95
2018-09-13T11:09:07.516Z,85.16
2018-09-13T11:10:14.151Z,86.16
2018-09-13T11:11:07.690Z,85.66
2018-09-13T11:12:08.043Z,86.16
2018-09-13T11:13:07.822Z,86.47
2018-09-13T11:14:07.484Z,85.56
2018-09-13T11:15:07.403Z,86.07
2018-09-13T11:16:07.341Z,85.16
2018-09-13T11:17:07.951Z,84.41
2018-09-13T11:18:08.388Z,84.41
2018-09-13T11:19:07.495Z,84.71
2018-09-13T11:20:07.300Z,84.81
2018-09-13T11:21:07.280Z,85.11
2018-09-13T11:22:07.281Z,86.22
2018-09-13T11:23:07.253Z,84.41
2018-09-13T11:24:07.362Z,85.46
2018-09-13T11:25:07.379Z,84.65
2018-09-13T11:26:07.234Z,85.90
2018-09-13T11:27:07.219Z,85.56
2018-09-13T11:28:07.217Z,86.27
2018-09-13T11:29:07.454Z,85.05
2018-09-13T11:30:26.007Z,85.46
2018-09-13T11:31:07.173Z,84.91
2018-09-13T11:32:07.148Z,84.45
2018-09-13T11:33:08.231Z,84.31
2018-09-13T11:34:07.137Z,84.65
2018-09-13T11:35:07.119Z,85.46
2018-09-13T11:36:07.142Z,84.45
2018-09-13T11:37:07.244Z,84.55
2018-09-13T11:38:07.097Z,85.36
2018-09-13T11:39:07.085Z,85.16
2018-09-13T11:40:07.160Z,84.85
2018-09-13T11:41:07.568Z,84.95
2018-09-13T11:42:07.101Z,84.65
2018-09-13T11:43:09.268Z,84.75
2018-09-13T11:44:07.266Z,84.45
2018-09-13T11:45:07.023Z,85.36
2018-09-13T11:46:07.017Z,84.75
2018-09-13T11:47:07.129Z,85.86
2018-09-13T11:48:08.667Z,85.80
2018-09-13T11:49:07.014Z,85.19
2018-09-13T11:50:06.976Z,84.69
2018-09-13T11:51:06.937Z,85.80
2018-09-13T11:52:09.720Z,86.15
2018-09-13T11:53:06.924Z,86.55
2018-09-13T11:54:06.966Z,86.76
2018-09-13T11:55:06.894Z,86.35
2018-09-13T11:56:07.148Z,86.55
2018-09-13T11:57:06.875Z,87.16
2018-09-13T11:58:06.942Z,86.65
2018-09-13T11:59:07.007Z,86.85
2018-09-13T12:00:17.454Z,86.61
2018-09-13T12:01:06.875Z,87.05
2018-09-13T12:02:06.917Z,86.55
2018-09-13T12:03:06.813Z,86.45
2018-09-13T12:04:06.805Z,86.85
2018-09-13T12:05:06.799Z,86.55
2018-09-13T12:06:06.823Z,86.65
2018-09-13T12:07:07.302Z,86.96
2018-09-13T12:08:06.901Z,86.71
2018-09-13T12:09:06.743Z,86.91
2018-09-13T12:10:06.733Z,86.51
2018-09-13T12:11:06.727Z,86.31
2018-09-13T12:12:06.718Z,86.67
2018-09-13T12:13:07.043Z,85.66
2018-09-13T12:14:06.951Z,86.07
2018-09-13T12:15:06.679Z,86.16
2018-09-13T12:16:06.675Z,84.95
2018-09-13T12:17:06.918Z,85.42
2018-09-13T12:18:06.699Z,85.93
2018-09-13T12:19:06.664Z,85.72
2018-09-13T12:20:06.632Z,85.88
2018-09-13T12:21:06.617Z,84.77
2018-09-13T12:22:06.676Z,84.37
2018-09-13T12:23:06.598Z,84.77
2018-09-13T12:24:06.969Z,82.71
2018-09-13T12:25:06.684Z,83.12
2018-09-13T12:26:06.564Z,81.87
2018-09-13T12:27:06.552Z,81.87
2018-09-13T12:28:06.537Z,82.03
2018-09-13T12:29:06.792Z,80.68
2018-09-13T12:30:07.137Z,80.38
2018-09-13T12:31:06.506Z,79.23
2018-09-13T12:32:06.502Z,78.83
2018-09-13T12:33:06.502Z,79.33
2018-09-13T12:34:06.746Z,78.32
2018-09-13T12:35:06.465Z,79.83
2018-09-13T12:36:06.522Z,78.92
2018-09-13T12:37:06.701Z,79.33
2018-09-13T12:38:06.560Z,80.13
2018-09-13T12:39:06.702Z,78.83
2018-09-13T12:40:06.407Z,78.49
2018-09-13T12:41:06.397Z,77.34
2018-09-13T12:42:06.389Z,76.74
2018-09-13T12:43:06.381Z,76.50
2018-09-13T12:44:06.479Z,75.19
2018-09-13T12:45:06.359Z,73.55
2018-09-13T12:46:06.834Z,74.99
2018-09-13T12:47:06.486Z,74.75
2018-09-13T12:48:06.416Z,73.98
2018-09-13T12:49:06.340Z,74.25
2018-09-13T12:50:06.388Z,74.99
2018-09-13T12:51:06.294Z,76.54
2018-09-13T12:52:06.311Z,76.14
2018-09-13T12:53:08.352Z,76.97
2018-09-13T12:54:06.798Z,76.97
2018-09-13T12:55:06.252Z,76.87
2018-09-13T12:56:06.245Z,76.97